Time;durP1;ratioP1;P1;durP2;ratioP2;P2;SDS_P1;SDS_P2;PMS_P1;PMS_P2;Temp;Humidity;BMP_temperature;BMP_pressure;BME280_temperature;BME280_humidity;BME280_pressure;Samples;Min_cycle;Max_cycle;Signal;HPM_P1;HPM_P2
2021/10/28 00:13:51;;;;;;;;;;;;;;;;;;5070452;28;19960;-80
2021/10/28 00:16:26;;;;;;;;;;;;;;;;;;5070129;28;19917;-80
2021/10/28 00:18:59;;;;;;;;;;;;;;;;;;5070602;28;19916;-80
2021/10/28 00:21:25;;;;;;;;;;;;;;;;;;5055750;28;19912;-80
2021/10/28 00:23:51;;;;;;;;;;;;;;;;;;5052948;28;19924;-80
2021/10/28 00:26:17;;;;;;;;;;;;;;;;;;5074218;28;20046;-80
2021/10/28 00:28:43;;;;;;;;;;;;;;;;;;5074567;28;20003;-80
2021/10/28 00:31:08;;;;;;;;;;;;;;;;;;5074179;28;19913;-80
2021/10/28 00:33:34;;;;;;;;;;;;;;;;;;5056919;28;20297;-80
2021/10/28 00:36:00;;;;;;;;;;;;;;;;;;5073970;28;19913;-80
2021/10/28 00:38:26;;;;;;;;;;;;;;;;;;5077587;28;20389;-80
2021/10/28 00:40:52;;;;;;;;;;;;;;;;;;5059889;28;20008;-80
2021/10/28 00:43:17;;;;;;;;;;;;;;;;;;5061336;28;19912;-80
2021/10/28 00:45:43;;;;;;;;;;;;;;;;;;5064375;28;20014;-80
2021/10/28 00:48:09;;;;;;;;;;;;;;;;;;5094247;28;20024;-80
2021/10/28 00:50:34;;;;;;;;;;;;;;;;;;5057811;28;19931;-80
2021/10/28 00:53:00;;;;;;;;;;;;;;;;;;5060369;28;19916;-80
2021/10/28 00:55:26;;;;;;;;;;;;;;;;;;5060259;28;20015;-80
2021/10/28 00:57:51;;;;;;;;;;;;;;;;;;5077180;28;20286;-80
2021/10/28 01:00:17;;;;;;;;;;;;;;;;;;5059757;28;19927;-80
2021/10/28 01:02:42;;;;;;;;;;;;;;;;;;5060293;28;19919;-80
2021/10/28 01:05:07;;;;;;;;;;;;;;;;;;5073230;28;19921;-80
2021/10/28 01:07:33;;;;;;;;;;;;;;;;;;5057004;28;19912;-80
2021/10/28 01:09:59;;;;;;;;;;;;;;;;;;5040446;28;19971;-80
2021/10/28 01:12:24;;;;;;;;;;;;;;;;;;5039979;28;20313;-80
2021/10/28 01:14:49;;;;;;;;;;;;;;;;;;5056925;28;20293;-80
2021/10/28 01:17:15;;;;;;;;;;;;;;;;;;5068105;28;19951;-80
2021/10/28 01:19:40;;;;;;;;;;;;;;;;;;5039938;28;19913;-80
2021/10/28 01:22:05;;;;;;;;;;;;;;;;;;5056414;28;19965;-80
2021/10/28 01:24:31;;;;;;;;;;;;;;;;;;5057684;28;19951;-80
2021/10/28 01:27:03;;;;;;;;;;;;;;;;;;5056344;28;20372;-80
2021/10/28 01:29:28;;;;;;;;;;;;;;;;;;5056693;28;20419;-81
2021/10/28 01:31:54;;;;;;;;;;;;;;;;;;5092242;28;19923;-80
2021/10/28 01:34:19;;;;;;;;;;;;;;;;;;5058721;28;20377;-80
2021/10/28 01:36:44;;;;;;;;;;;;;;;;;;5073045;28;19995;-80
2021/10/28 01:39:17;;;;;;;;;;;;;;;;;;5056341;28;19978;-80
2021/10/28 01:41:42;;;;;;;;;;;;;;;;;;5075826;28;19920;-80
2021/10/28 01:44:08;;;;;;;;;;;;;;;;;;5079564;28;20282;-80
2021/10/28 01:46:33;;;;;;;;;;;;;;;;;;5061758;28;19917;-80
2021/10/28 01:48:58;;;;;;;;;;;;;;;;;;5055708;28;19958;-80
2021/10/28 01:51:24;;;;;;;;;;;;;;;;;;5072627;28;19916;-80
2021/10/28 01:53:50;;;;;;;;;;;;;;;;;;5061338;28;20362;-80
2021/10/28 01:56:15;;;;;;;;;;;;;;;;;;5056688;28;19917;-80
2021/10/28 01:58:40;;;;;;;;;;;;;;;;;;5055707;28;19962;-80
2021/10/28 02:01:06;;;;;;;;;;;;;;;;;;5055693;28;20011;-80
2021/10/28 02:03:31;;;;;;;;;;;;;;;;;;5081734;28;19960;-80
2021/10/28 02:05:57;;;;;;;;;;;;;;;;;;5078727;28;19920;-80
2021/10/28 02:08:23;;;;;;;;;;;;;;;;;;5055908;28;19917;-80
2021/10/28 02:10:49;;;;;;;;;;;;;;;;;;5055889;28;20374;-80
2021/10/28 02:13:14;;;;;;;;;;;;;;;;;;5055580;28;20019;-80
2021/10/28 02:15:40;;;;;;;;;;;;;;;;;;5085693;28;19943;-80
2021/10/28 02:18:06;;;;;;;;;;;;;;;;;;5055879;28;19970;-80
2021/10/28 02:20:31;;;;;;;;;;;;;;;;;;5071842;28;19952;-80
2021/10/28 02:22:56;;;;;;;;;;;;;;;;;;5055242;28;19912;-80
2021/10/28 02:25:21;;;;;;;;;;;;;;;;;;5060326;28;19923;-80
2021/10/28 02:27:48;;;;;;;;;;;;;;;;;;5058416;28;19916;-80
2021/10/28 02:30:14;;;;;;;;;;;;;;;;;;5075728;28;19912;-80
2021/10/28 02:32:40;;;;;;;;;;;;;;;;;;5075427;28;19984;-80
2021/10/28 02:35:05;;;;;;;;;;;;;;;;;;5089574;28;19912;-80
2021/10/28 02:37:31;;;;;;;;;;;;;;;;;;5067945;28;20286;-80
2021/10/28 02:39:56;;;;;;;;;;;;;;;;;;5057995;28;19946;-80
2021/10/28 02:42:22;;;;;;;;;;;;;;;;;;5074271;28;19920;-80
2021/10/28 02:44:47;;;;;;;;;;;;;;;;;;5073806;28;20019;-80
2021/10/28 02:47:12;;;;;;;;;;;;;;;;;;5073287;28;20400;-80
2021/10/28 02:49:38;;;;;;;;;;;;;;;;;;5055484;28;19923;-80
2021/10/28 02:52:03;;;;;;;;;;;;;;;;;;5054954;28;19922;-80
2021/10/28 02:54:29;;;;;;;;;;;;;;;;;;5067240;28;20378;-80
2021/10/28 02:56:55;;;;;;;;;;;;;;;;;;5069968;28;20010;-80
2021/10/28 02:59:20;;;;;;;;;;;;;;;;;;5071290;28;19979;-80
2021/10/28 03:01:47;;;;;;;;;;;;;;;;;;5070874;28;19917;-80
2021/10/28 03:04:13;;;;;;;;;;;;;;;;;;5055051;28;19951;-80
2021/10/28 03:06:39;;;;;;;;;;;;;;;;;;5049134;28;20374;-80
2021/10/28 03:09:06;;;;;;;;;;;;;;;;;;5054544;28;19927;-80
2021/10/28 03:11:31;;;;;;;;;;;;;;;;;;5054645;28;19913;-80
2021/10/28 03:13:56;;;;;;;;;;;;;;;;;;5038114;28;20278;-80
2021/10/28 03:27:09;;;;;;;;;;;;;;;;;;5073706;28;20277;-80
2021/10/28 03:29:34;;;;;;;;;;;;;;;;;;5068233;28;19999;-80
2021/10/28 03:32:00;;;;;;;;;;;;;;;;;;5054309;28;19920;-80
2021/10/28 03:34:25;;;;;;;;;;;;;;;;;;5070973;28;19966;-80
2021/10/28 03:37:00;;;;;;;;;;;;;;;;;;5052210;28;20393;-80
2021/10/28 04:30:15;;;;;;;;;;;;;;;;;;5057403;28;19920;-80
2021/10/28 04:32:41;;;;;;;;;;;;;;;;;;5074685;28;19912;-80
2021/10/28 04:35:09;;;;;;;;;;;;;;;;;;5060914;28;20570;-80
2021/10/28 04:37:36;;;;;;;;;;;;;;;;;;5060886;28;20378;-80
2021/10/28 04:40:01;;;;;;;;;;;;;;;;;;5078800;28;20374;-80
2021/10/28 04:42:27;;;;;;;;;;;;;;;;;;5060639;28;19916;-80
2021/10/28 04:44:52;;;;;;;;;;;;;;;;;;5077558;28;19973;-80
2021/10/28 04:47:17;;;;;;;;;;;;;;;;;;5057823;28;19925;-82
2021/10/28 04:49:43;;;;;;;;;;;;;;;;;;5057415;28;19917;-80
2021/10/28 04:52:08;;;;;;;;;;;;;;;;;;5043109;28;19983;-80
2021/10/28 04:54:33;;;;;;;;;;;;;;;;;;5074819;28;20383;-80
2021/10/28 04:56:59;;;;;;;;;;;;;;;;;;5057329;28;19916;-80
2021/10/28 04:59:24;;;;;;;;;;;;;;;;;;5074249;28;19916;-81
2021/10/28 05:01:49;;;;;;;;;;;;;;;;;;5073113;28;19916;-80
2021/10/28 05:04:15;;;;;;;;;;;;;;;;;;5073705;28;20304;-80
2021/10/28 05:06:41;;;;;;;;;;;;;;;;;;5064817;28;20015;-80
2021/10/28 05:09:08;;;;;;;;;;;;;;;;;;5089261;28;20007;-80
2021/10/28 05:11:33;;;;;;;;;;;;;;;;;;5091259;28;19999;-80
2021/10/28 05:13:59;;;;;;;;;;;;;;;;;;5093913;28;19994;-80
2021/10/28 05:16:24;;;;;;;;;;;;;;;;;;5093611;28;19920;-80
2021/10/28 05:18:50;;;;;;;;;;;;;;;;;;5077036;28;19912;-80
2021/10/28 05:21:15;;;;;;;;;;;;;;;;;;5076017;28;19916;-80
2021/10/28 05:23:41;;;;;;;;;;;;;;;;;;5055609;28;19917;-81
2021/10/28 05:26:06;;;;;;;;;;;;;;;;;;5051104;28;20380;-81
2021/10/28 05:28:32;;;;;;;;;;;;;;;;;;5076826;28;19919;-80
2021/10/28 05:30:57;;;;;;;;;;;;;;;;;;5073238;28;19927;-80
2021/10/28 05:33:23;;;;;;;;;;;;;;;;;;5040160;28;19927;-81
2021/10/28 05:35:48;;;;;;;;;;;;;;;;;;5056206;28;20375;-80
2021/10/28 05:38:14;;;;;;;;;;;;;;;;;;5071797;28;19998;-81
2021/10/28 05:40:39;;;;;;;;;;;;;;;;;;5039249;28;19920;-81
2021/10/28 05:43:07;;;;;;;;;;;;;;;;;;5090631;28;20011;-80
2021/10/28 05:45:38;;;;;;;;;;;;;;;;;;5071140;28;19913;-81
2021/10/28 05:48:05;;;;;;;;;;;;;;;;;;5074017;28;20135;-82
2021/10/28 05:50:31;;;;;;;;;;;;;;;;;;5069438;28;20446;-80
2021/10/28 05:52:59;;;;;;;;;;;;;;;;;;5055927;28;19991;-81
2021/10/28 05:55:25;;;;;;;;;;;;;;;;;;5056346;28;20293;-81
2021/10/28 05:57:50;;;;;;;;;;;;;;;;;;5072754;28;19913;-83
2021/10/28 06:00:17;;;;;;;;;;;;;;;;;;5039149;28;19919;-83
2021/10/28 06:02:43;;;;;;;;;;;;;;;;;;5056071;28;19917;-83
2021/10/28 06:05:09;;;;;;;;;;;;;;;;;;5053385;28;20475;-83
2021/10/28 06:07:34;;;;;;;;;;;;;;;;;;5038234;28;20019;-84
2021/10/28 06:10:00;;;;;;;;;;;;;;;;;;5056345;28;20341;-84
2021/10/28 06:12:27;;;;;;;;;;;;;;;;;;5049945;28;19926;-83
2021/10/28 06:14:56;;;;;;;;;;;;;;;;;;5060563;28;20374;-82
2021/10/28 06:17:29;;;;;;;;;;;;;;;;;;5060024;28;20286;-82
2021/10/28 06:19:54;;;;;;;;;;;;;;;;;;5048481;28;19970;-80
2021/10/28 06:22:19;;;;;;;;;;;;;;;;;;5092305;28;19912;-82
2021/10/28 06:24:45;;;;;;;;;;;;;;;;;;5068829;28;19912;-82
2021/10/28 06:27:10;;;;;;;;;;;;;;;;;;5038476;28;19916;-81
2021/10/28 06:29:36;;;;;;;;;;;;;;;;;;5058077;28;19920;-81
2021/10/28 06:32:01;;;;;;;;;;;;;;;;;;5055642;28;19916;-83
2021/10/28 06:34:32;;;;;;;;;;;;;;;;;;5054616;28;19916;-82
2021/10/28 06:37:03;;;;;;;;;;;;;;;;;;5074923;28;19916;-82
2021/10/28 06:39:28;;;;;;;;;;;;;;;;;;5055708;28;19924;-80
2021/10/28 06:41:54;;;;;;;;;;;;;;;;;;5038151;28;19923;-81
2021/10/28 06:44:19;;;;;;;;;;;;;;;;;;5038337;28;19916;-82
2021/10/28 06:46:45;;;;;;;;;;;;;;;;;;5072262;28;19923;-82
2021/10/28 06:49:11;;;;;;;;;;;;;;;;;;5058250;28;19916;-81
2021/10/28 06:51:39;;;;;;;;;;;;;;;;;;5092361;28;19912;-81
2021/10/28 06:56:52;;;;;;;;;;;;;;;;;;5072881;28;20449;-80
2021/10/28 07:02:18;;;;;;;;;;;;;;;;;;5089414;28;19916;-80
2021/10/28 07:04:43;;;;;;;;;;;;;;;;;;5074487;28;20389;-81
2021/10/28 07:07:09;;;;;;;;;;;;;;;;;;5091252;28;19923;-82
2021/10/28 07:09:37;;;;;;;;;;;;;;;;;;5057799;28;20551;-82
2021/10/28 07:14:37;;;;;;;;;;;;;;;;;;5069751;28;19923;-81
2021/10/28 07:25:22;;;;;;;;;;;;;;;;;;5076758;28;20015;-82
2021/10/28 07:30:27;;;;;;;;;;;;;;;;;;5074201;28;19916;-82
2021/10/28 08:21:32;;;;;;;;;;;;;;;;;;5072609;28;19921;-84
2021/10/28 08:29:44;;;;;;;;;;;;;;;;;;5072925;28;19964;-84
2021/10/28 08:32:11;;;;;;;;;;;;;;;;;;5045920;28;19971;-84
2021/10/28 08:34:37;;;;;;;;;;;;;;;;;;5037305;28;19931;-85
2021/10/28 08:37:09;;;;;;;;;;;;;;;;;;5046080;28;19912;-85
2021/10/28 08:39:35;;;;;;;;;;;;;;;;;;5056688;28;20015;-84
2021/10/28 08:42:05;;;;;;;;;;;;;;;;;;5055631;28;20015;-85
2021/10/28 08:44:32;;;;;;;;;;;;;;;;;;5039517;28;19912;-83
2021/10/28 08:46:57;;;;;;;;;;;;;;;;;;5058797;28;20394;-84
2021/10/28 08:49:32;;;;;;;;;;;;;;;;;;5042592;28;19964;-84
2021/10/28 08:52:13;;;;;;;;;;;;;;;;;;5056121;28;19961;-84
2021/10/28 09:24:40;;;;;;;;;;;;;;;;;;5079518;28;19961;-83
2021/10/28 09:29:57;;;;;;;;;;;;;;;;;;5072007;28;19912;-85
2021/10/28 09:35:10;;;;;;;;;;;;;;;;;;5057031;28;20014;-83
2021/10/28 09:51:46;;;;;;;;;;;;;;;;;;5049980;28;19916;-86
2021/10/28 09:54:28;;;;;;;;;;;;;;;;;;5041593;28;19916;-85
2021/10/28 09:59:41;;;;;;;;;;;;;;;;;;5073017;28;19916;-83
2021/10/28 10:02:13;;;;;;;;;;;;;;;;;;5073684;28;19935;-81
2021/10/28 10:04:41;;;;;;;;;;;;;;;;;;5039235;28;19916;-81
2021/10/28 10:07:06;;;;;;;;;;;;;;;;;;5074714;28;19923;-81
2021/10/28 10:09:41;;;;;;;;;;;;;;;;;;5073137;28;19916;-81
2021/10/28 10:12:06;;;;;;;;;;;;;;;;;;5054895;28;19920;-80
2021/10/28 10:14:35;;;;;;;;;;;;;;;;;;5055637;28;20386;-81
2021/10/28 10:17:02;;;;;;;;;;;;;;;;;;5042606;28;19934;-80
2021/10/28 10:19:28;;;;;;;;;;;;;;;;;;5039083;28;19917;-80
2021/10/28 10:21:54;;;;;;;;;;;;;;;;;;5054948;28;20003;-80
2021/10/28 11:04:48;;;;;;;;;;;;;;;;;;5091207;28;19916;-80
2021/10/28 11:21:56;;;;;;;;;;;;;;;;;;5069171;28;20386;-80
2021/10/28 13:38:11;;;;;;;;;;;;;;;;;;5069656;28;20387;-81
2021/10/28 13:49:02;;;;;;;;;;;;;;;;;;5072707;28;19917;-81
2021/10/28 13:51:42;;;;;;;;;;;;;;;;;;5056606;28;20007;-81
2021/10/28 14:24:00;;;;;;;;;;;;;;;;;;5083806;28;19961;-81
2021/10/28 15:29:24;;;;;;;;;;;;;;;;;;5091426;28;19924;-80
2021/10/28 15:34:56;;;;;;;;;;;;;;;;;;5091026;28;19923;-80
2021/10/28 15:40:20;;;;;;;;;;;;;;;;;;5064948;28;20011;-80
2021/10/28 15:47:09;;;;;;;;;;;;;;;;;;5074459;28;20409;-80
2021/10/28 16:22:25;;;;;;;;;;;;;;;;;;5073353;28;19973;-82
2021/10/28 16:24:50;;;;;;;;;;;;;;;;;;5046041;28;19912;-80
2021/10/28 16:27:16;;;;;;;;;;;;;;;;;;5056315;28;19912;-80
2021/10/28 16:29:41;;;;;;;;;;;;;;;;;;5073116;28;19955;-79
2021/10/28 16:32:07;;;;;;;;;;;;;;;;;;5072624;28;19916;-80
2021/10/28 16:34:32;;;;;;;;;;;;;;;;;;5074187;28;19919;-79
2021/10/28 16:36:58;;;;;;;;;;;;;;;;;;5065626;28;19919;-80
2021/10/28 16:39:23;;;;;;;;;;;;;;;;;;5047064;28;19920;-81
2021/10/28 16:41:50;;;;;;;;;;;;;;;;;;5073080;28;19916;-80
2021/10/28 16:44:15;;;;;;;;;;;;;;;;;;5054999;28;19920;-80
2021/10/28 16:46:41;;;;;;;;;;;;;;;;;;5056292;28;20015;-81
2021/10/28 16:49:06;;;;;;;;;;;;;;;;;;5038974;28;20007;-80
2021/10/28 16:51:32;;;;;;;;;;;;;;;;;;5036995;28;19917;-80
2021/10/28 16:53:58;;;;;;;;;;;;;;;;;;5037246;28;19913;-80
2021/10/28 16:56:23;;;;;;;;;;;;;;;;;;5036484;28;19921;-80
2021/10/28 16:58:49;;;;;;;;;;;;;;;;;;5037695;28;20329;-79
2021/10/28 17:01:14;;;;;;;;;;;;;;;;;;5070169;28;19919;-80
2021/10/28 17:03:39;;;;;;;;;;;;;;;;;;5037744;28;19913;-80
2021/10/28 17:06:05;;;;;;;;;;;;;;;;;;5073501;28;20426;-80
2021/10/28 17:08:30;;;;;;;;;;;;;;;;;;5057092;28;19919;-81
2021/10/28 17:10:56;;;;;;;;;;;;;;;;;;5056437;28;20286;-80
2021/10/28 17:13:22;;;;;;;;;;;;;;;;;;5047953;28;20017;-80
2021/10/28 17:15:47;;;;;;;;;;;;;;;;;;5071540;28;19938;-80
2021/10/28 17:18:12;;;;;;;;;;;;;;;;;;5056722;28;19920;-81
2021/10/28 17:20:38;;;;;;;;;;;;;;;;;;5056013;28;19921;-81
2021/10/28 17:23:04;;;;;;;;;;;;;;;;;;5073409;28;19924;-81
2021/10/28 17:25:32;;;;;;;;;;;;;;;;;;5056090;28;19927;-80
2021/10/28 17:27:57;;;;;;;;;;;;;;;;;;5057005;28;19912;-80
2021/10/28 17:30:24;;;;;;;;;;;;;;;;;;5056684;28;19919;-80
2021/10/28 17:32:49;;;;;;;;;;;;;;;;;;5056546;28;20336;-80
2021/10/28 17:35:15;;;;;;;;;;;;;;;;;;5043267;28;19920;-80
2021/10/28 17:37:40;;;;;;;;;;;;;;;;;;5059713;28;19916;-80
2021/10/28 17:40:06;;;;;;;;;;;;;;;;;;5075538;28;19959;-80
2021/10/28 17:42:32;;;;;;;;;;;;;;;;;;5059518;28;19959;-80
2021/10/28 17:44:58;;;;;;;;;;;;;;;;;;5058802;28;20316;-80
2021/10/28 17:47:23;;;;;;;;;;;;;;;;;;5056757;28;19920;-80
2021/10/28 17:49:49;;;;;;;;;;;;;;;;;;5055783;28;19920;-80
2021/10/28 17:52:15;;;;;;;;;;;;;;;;;;5054894;28;19912;-80
2021/10/28 17:54:40;;;;;;;;;;;;;;;;;;5054647;28;19912;-81
2021/10/28 17:57:06;;;;;;;;;;;;;;;;;;5068668;28;19916;-81
2021/10/28 17:59:31;;;;;;;;;;;;;;;;;;5057451;28;19923;-80
2021/10/28 18:01:57;;;;;;;;;;;;;;;;;;5074590;28;19916;-81
2021/10/28 18:04:22;;;;;;;;;;;;;;;;;;5059388;28;20060;-81
2021/10/28 18:06:49;;;;;;;;;;;;;;;;;;5076623;28;19919;-81
2021/10/28 18:09:14;;;;;;;;;;;;;;;;;;5050167;28;19966;-81
2021/10/28 18:11:39;;;;;;;;;;;;;;;;;;5071941;28;19920;-80
2021/10/28 18:14:11;;;;;;;;;;;;;;;;;;5073628;28;20352;-81
2021/10/28 18:16:36;;;;;;;;;;;;;;;;;;5056201;28;20015;-79
2021/10/28 18:19:03;;;;;;;;;;;;;;;;;;5057773;28;20019;-80
2021/10/28 18:21:29;;;;;;;;;;;;;;;;;;5058805;28;19916;-79
2021/10/28 18:23:56;;;;;;;;;;;;;;;;;;5074869;28;19922;-79
2021/10/28 18:26:23;;;;;;;;;;;;;;;;;;5068975;28;20412;-79
2021/10/28 18:28:50;;;;;;;;;;;;;;;;;;5044422;28;19973;-79
2021/10/28 18:31:15;;;;;;;;;;;;;;;;;;5075251;28;19916;-80
2021/10/28 18:33:42;;;;;;;;;;;;;;;;;;5075319;28;20342;-79
2021/10/28 18:36:10;;;;;;;;;;;;;;;;;;5056250;28;19959;-80
2021/10/28 18:38:36;;;;;;;;;;;;;;;;;;5056678;28;20316;-83
2021/10/28 18:41:01;;;;;;;;;;;;;;;;;;5046327;28;19916;-82
2021/10/28 18:43:27;;;;;;;;;;;;;;;;;;5055214;28;19917;-82
2021/10/28 18:45:52;;;;;;;;;;;;;;;;;;5045014;28;19924;-84
2021/10/28 18:48:18;;;;;;;;;;;;;;;;;;5064142;28;20440;-82
2021/10/28 18:50:43;;;;;;;;;;;;;;;;;;5038469;28;19944;-82
2021/10/28 18:53:09;;;;;;;;;;;;;;;;;;5038116;28;20255;-82
2021/10/28 18:55:36;;;;;;;;;;;;;;;;;;5055514;28;19922;-81
2021/10/28 18:58:01;;;;;;;;;;;;;;;;;;5075523;28;19912;-82
2021/10/28 19:00:27;;;;;;;;;;;;;;;;;;5083527;28;19927;-82
2021/10/28 19:02:53;;;;;;;;;;;;;;;;;;5054929;28;19927;-83
2021/10/28 19:05:21;;;;;;;;;;;;;;;;;;5038139;28;19917;-83
2021/10/28 19:07:46;;;;;;;;;;;;;;;;;;5055215;28;19916;-84
2021/10/28 19:10:12;;;;;;;;;;;;;;;;;;5038146;28;20286;-83
2021/10/28 19:12:37;;;;;;;;;;;;;;;;;;5063365;28;19916;-83
2021/10/28 19:15:04;;;;;;;;;;;;;;;;;;5057874;28;19920;-83
2021/10/28 19:17:31;;;;;;;;;;;;;;;;;;5075171;28;20266;-84
2021/10/28 19:19:56;;;;;;;;;;;;;;;;;;5068452;28;19940;-83
2021/10/28 19:22:29;;;;;;;;;;;;;;;;;;5057041;28;20007;-83
2021/10/28 19:24:54;;;;;;;;;;;;;;;;;;5074851;28;20289;-83
2021/10/28 19:27:19;;;;;;;;;;;;;;;;;;5059192;28;19923;-84
2021/10/28 19:29:51;;;;;;;;;;;;;;;;;;5072956;28;19916;-83
2021/10/28 19:32:26;;;;;;;;;;;;;;;;;;5061313;28;20006;-85
2021/10/28 19:34:53;;;;;;;;;;;;;;;;;;5076211;28;19912;-83
2021/10/28 19:40:08;;;;;;;;;;;;;;;;;;5074690;28;19965;-82
2021/10/28 19:47:45;;;;;;;;;;;;;;;;;;5084066;28;20439;-83
2021/10/28 19:50:12;;;;;;;;;;;;;;;;;;5057375;28;19912;-83
2021/10/28 19:52:41;;;;;;;;;;;;;;;;;;5079067;28;19919;-82
2021/10/28 19:55:06;;;;;;;;;;;;;;;;;;5074284;28;19919;-82
2021/10/28 19:57:36;;;;;;;;;;;;;;;;;;5086806;28;19924;-82
2021/10/28 20:00:20;;;;;;;;;;;;;;;;;;5054557;28;19924;-83
2021/10/28 20:08:04;;;;;;;;;;;;;;;;;;5071097;28;19912;-82
2021/10/28 20:13:49;;;;;;;;;;;;;;;;;;5056506;28;19916;-82
2021/10/28 20:21:23;;;;;;;;;;;;;;;;;;5071605;28;19916;-82
2021/10/28 20:23:50;;;;;;;;;;;;;;;;;;5047974;28;19921;-83
2021/10/28 20:26:15;;;;;;;;;;;;;;;;;;5053877;28;19912;-82
2021/10/28 20:28:42;;;;;;;;;;;;;;;;;;5070790;28;20396;-82
2021/10/28 20:31:08;;;;;;;;;;;;;;;;;;5070933;28;19912;-82
2021/10/28 20:33:37;;;;;;;;;;;;;;;;;;5053534;28;20349;-82
2021/10/28 20:37:05;;;;;;;;;;;;;;;;;;5054447;28;19962;-82
2021/10/28 20:38:51;;;;;;;;;;;;;;;;;;5080899;28;19916;-83
2021/10/28 20:41:17;;;;;;;;;;;;;;;;;;5057438;28;19917;-82
2021/10/28 20:43:42;;;;;;;;;;;;;;;;;;5057497;28;19912;-82
2021/10/28 20:46:08;;;;;;;;;;;;;;;;;;5049231;28;19912;-82
2021/10/28 20:48:38;;;;;;;;;;;;;;;;;;5073954;28;19913;-82
2021/10/28 20:51:04;;;;;;;;;;;;;;;;;;5073525;28;20007;-82
2021/10/28 20:53:29;;;;;;;;;;;;;;;;;;5040640;28;20015;-81
2021/10/28 20:55:54;;;;;;;;;;;;;;;;;;5057055;28;19958;-82
2021/10/28 20:58:19;;;;;;;;;;;;;;;;;;5040722;28;19919;-82
2021/10/28 21:00:45;;;;;;;;;;;;;;;;;;5057071;28;20007;-82
2021/10/28 21:03:10;;;;;;;;;;;;;;;;;;5056806;28;20313;-83
2021/10/28 21:05:35;;;;;;;;;;;;;;;;;;5042362;28;19921;-83
2021/10/28 21:08:01;;;;;;;;;;;;;;;;;;5040742;28;19912;-82
2021/10/28 21:10:26;;;;;;;;;;;;;;;;;;5057017;28;20350;-82
2021/10/28 21:12:52;;;;;;;;;;;;;;;;;;5047529;28;20298;-82
2021/10/28 21:15:18;;;;;;;;;;;;;;;;;;5073607;28;20290;-82
2021/10/28 21:17:44;;;;;;;;;;;;;;;;;;5059400;28;19963;-82
2021/10/28 21:20:09;;;;;;;;;;;;;;;;;;5054333;28;20015;-82
2021/10/28 21:22:36;;;;;;;;;;;;;;;;;;5039863;28;19912;-82
2021/10/28 21:25:01;;;;;;;;;;;;;;;;;;5056853;28;19912;-82
2021/10/28 21:27:27;;;;;;;;;;;;;;;;;;5040064;28;19913;-82
2021/10/28 21:29:52;;;;;;;;;;;;;;;;;;5039858;28;19919;-82
2021/10/28 21:32:17;;;;;;;;;;;;;;;;;;5056656;28;19966;-82
2021/10/28 21:34:43;;;;;;;;;;;;;;;;;;5039961;28;19958;-82
2021/10/28 21:37:10;;;;;;;;;;;;;;;;;;5059864;28;19912;-82
2021/10/28 21:39:35;;;;;;;;;;;;;;;;;;5059933;28;20135;-82
2021/10/28 21:42:01;;;;;;;;;;;;;;;;;;5076301;28;20271;-83
2021/10/28 21:44:27;;;;;;;;;;;;;;;;;;5076656;28;19965;-82
2021/10/28 21:46:52;;;;;;;;;;;;;;;;;;5055781;28;19916;-82
2021/10/28 21:49:18;;;;;;;;;;;;;;;;;;5073013;28;19919;-83
2021/10/28 21:51:45;;;;;;;;;;;;;;;;;;5059522;28;20031;-82
2021/10/28 21:54:27;;;;;;;;;;;;;;;;;;5072510;28;19912;-84
2021/10/28 21:56:55;;;;;;;;;;;;;;;;;;5082972;28;19916;-83
2021/10/28 22:02:26;;;;;;;;;;;;;;;;;;5073367;28;19946;-84
2021/10/28 22:26:25;;;;;;;;;;;;;;;;;;5065704;28;19912;-83
2021/10/28 22:28:50;;;;;;;;;;;;;;;;;;5065071;28;20389;-83
2021/10/28 22:31:16;;;;;;;;;;;;;;;;;;5065168;28;20344;-84
2021/10/28 22:33:41;;;;;;;;;;;;;;;;;;5047602;28;19913;-82
2021/10/28 22:36:29;;;;;;;;;;;;;;;;;;5046818;28;19912;-83
2021/10/28 22:38:58;;;;;;;;;;;;;;;;;;5063676;28;19935;-83
2021/10/28 22:41:24;;;;;;;;;;;;;;;;;;5064020;28;19924;-82
2021/10/28 22:43:49;;;;;;;;;;;;;;;;;;5061458;28;20319;-83
2021/10/28 22:46:15;;;;;;;;;;;;;;;;;;5081824;28;19990;-82
2021/10/28 22:48:40;;;;;;;;;;;;;;;;;;5049118;28;19916;-83
2021/10/28 22:51:06;;;;;;;;;;;;;;;;;;5062430;28;19916;-83
2021/10/28 22:53:31;;;;;;;;;;;;;;;;;;5056146;28;19916;-82
2021/10/28 22:55:58;;;;;;;;;;;;;;;;;;5074083;28;20274;-83
2021/10/28 22:58:30;;;;;;;;;;;;;;;;;;5075124;28;19918;-82
2021/10/28 23:12:08;;;;;;;;;;;;;;;;;;5076576;28;19968;-82
2021/10/28 23:22:14;;;;;;;;;;;;;;;;;;5056531;28;19951;-82
2021/10/28 23:24:39;;;;;;;;;;;;;;;;;;5054481;28;19963;-83
2021/10/28 23:27:04;;;;;;;;;;;;;;;;;;5037594;28;19912;-82
2021/10/28 23:29:30;;;;;;;;;;;;;;;;;;5054314;28;19950;-82
2021/10/28 23:31:55;;;;;;;;;;;;;;;;;;5046838;28;19920;-82
2021/10/28 23:34:21;;;;;;;;;;;;;;;;;;5054501;28;19922;-82
2021/10/28 23:36:46;;;;;;;;;;;;;;;;;;5054010;28;19921;-83
2021/10/28 23:39:12;;;;;;;;;;;;;;;;;;5054108;28;19999;-82
2021/10/28 23:41:38;;;;;;;;;;;;;;;;;;5053674;28;19923;-83
2021/10/28 23:44:04;;;;;;;;;;;;;;;;;;5071144;28;20007;-82
2021/10/28 23:46:29;;;;;;;;;;;;;;;;;;5071166;28;20326;-82
2021/10/28 23:48:54;;;;;;;;;;;;;;;;;;5053932;28;19970;-82
2021/10/28 23:51:20;;;;;;;;;;;;;;;;;;5054338;28;19938;-83
2021/10/28 23:53:45;;;;;;;;;;;;;;;;;;5053882;28;19917;-83
2021/10/28 23:56:10;;;;;;;;;;;;;;;;;;5053639;28;19913;-83
2021/10/28 23:58:37;;;;;;;;;;;;;;;;;;5054151;28;19917;-82
